createdAt,value
2018-08-04T00:00:51.389Z,0.00
2018-08-04T00:01:51.375Z,0.00
2018-08-04T00:02:51.344Z,0.00
2018-08-04T00:03:51.318Z,0.00
2018-08-04T00:04:51.296Z,0.00
2018-08-04T00:05:51.280Z,0.00
2018-08-04T00:06:51.248Z,0.00
2018-08-04T00:07:51.233Z,0.00
2018-08-04T00:08:51.216Z,0.00
2018-08-04T00:09:51.190Z,0.00
2018-08-04T00:10:51.165Z,0.00
2018-08-04T00:11:51.196Z,0.00
2018-08-04T00:12:51.121Z,0.00
2018-08-04T00:13:51.107Z,0.00
2018-08-04T00:14:51.086Z,0.00
2018-08-04T00:15:51.052Z,0.00
2018-08-04T00:16:51.040Z,0.00
2018-08-04T00:17:51.005Z,0.00
2018-08-04T00:18:50.995Z,0.00
2018-08-04T00:19:50.962Z,0.00
2018-08-04T00:20:50.949Z,0.00
2018-08-04T00:21:50.922Z,0.00
2018-08-04T00:22:50.896Z,0.00
2018-08-04T00:23:50.880Z,0.00
2018-08-04T00:24:50.851Z,0.00
2018-08-04T00:25:50.839Z,0.00
2018-08-04T00:26:50.815Z,0.00
2018-08-04T00:27:50.783Z,0.00
2018-08-04T00:29:50.744Z,0.00
2018-08-04T00:30:50.722Z,0.00
2018-08-04T00:31:50.705Z,0.00
2018-08-04T00:32:50.681Z,0.00
2018-08-04T00:33:50.656Z,0.00
2018-08-04T00:34:50.633Z,0.00
2018-08-04T00:35:50.615Z,0.00
2018-08-04T00:36:50.584Z,0.00
2018-08-04T00:37:50.572Z,0.00
2018-08-04T00:38:50.540Z,0.00
2018-08-04T00:39:50.525Z,0.00
2018-08-04T00:40:50.505Z,0.00
2018-08-04T00:41:50.473Z,0.00
2018-08-04T00:42:50.460Z,0.00
2018-08-04T00:43:50.432Z,0.00
2018-08-04T00:44:50.412Z,0.00
2018-08-04T00:45:50.395Z,0.00
2018-08-04T00:46:50.363Z,0.00
2018-08-04T00:47:50.346Z,0.00
2018-08-04T00:48:50.327Z,0.00
2018-08-04T00:49:50.303Z,0.00
2018-08-04T00:50:50.280Z,0.00
2018-08-04T00:51:50.248Z,0.00
2018-08-04T00:52:50.230Z,0.00
2018-08-04T00:53:50.212Z,0.00
2018-08-04T00:54:50.180Z,0.00
2018-08-04T00:55:50.170Z,0.00
2018-08-04T00:56:50.141Z,0.00
2018-08-04T00:57:50.116Z,0.00
2018-08-04T00:58:50.096Z,0.00
2018-08-04T00:59:50.071Z,0.00
2018-08-04T01:00:50.052Z,0.00
2018-08-04T01:01:50.034Z,0.00
2018-08-04T01:02:50.009Z,0.00
2018-08-04T01:03:49.988Z,0.00
2018-08-04T01:04:49.964Z,0.00
2018-08-04T01:05:49.938Z,0.00
2018-08-04T01:06:49.917Z,0.00
2018-08-04T01:07:49.896Z,0.00
2018-08-04T01:08:49.872Z,0.00
2018-08-04T01:09:49.855Z,0.00
2018-08-04T01:10:49.823Z,0.00
2018-08-04T01:11:49.807Z,0.00
2018-08-04T01:12:49.785Z,0.00
2018-08-04T01:13:49.756Z,0.00
2018-08-04T01:14:49.731Z,0.00
2018-08-04T01:15:49.710Z,0.00
2018-08-04T01:16:49.694Z,0.00
2018-08-04T01:17:49.669Z,0.00
2018-08-04T01:18:49.644Z,0.00
2018-08-04T01:19:49.629Z,0.00
2018-08-04T01:20:49.603Z,0.00
2018-08-04T01:21:49.583Z,0.00
2018-08-04T01:22:49.561Z,0.00
2018-08-04T01:23:49.529Z,0.00
2018-08-04T01:24:49.517Z,0.00
2018-08-04T01:25:49.492Z,0.00
2018-08-04T01:26:49.474Z,0.00
2018-08-04T01:27:49.446Z,0.00
2018-08-04T01:28:49.424Z,0.00
2018-08-04T01:29:49.409Z,0.00
2018-08-04T01:30:49.376Z,0.00
2018-08-04T01:31:49.361Z,0.00
2018-08-04T01:32:49.329Z,0.00
2018-08-04T01:33:49.312Z,0.00
2018-08-04T01:34:49.284Z,0.00
2018-08-04T01:35:49.271Z,0.00
2018-08-04T01:36:49.240Z,0.00
2018-08-04T01:37:49.221Z,0.00
2018-08-04T01:38:49.198Z,0.00
2018-08-04T01:39:49.169Z,0.00
2018-08-04T01:40:49.148Z,0.00
2018-08-04T01:41:49.122Z,0.00
2018-08-04T01:42:49.109Z,0.00
2018-08-04T01:43:49.088Z,0.00
2018-08-04T01:44:49.060Z,0.00
2018-08-04T01:45:49.035Z,0.00
2018-08-04T01:46:49.017Z,0.00
2018-08-04T01:47:48.986Z,0.00
2018-08-04T01:48:48.966Z,0.00
2018-08-04T01:49:48.949Z,0.00
2018-08-04T01:50:48.924Z,0.00
2018-08-04T01:51:48.901Z,0.00
2018-08-04T01:52:48.876Z,0.00
2018-08-04T01:53:48.865Z,0.00
2018-08-04T01:54:48.827Z,0.00
2018-08-04T01:55:48.814Z,0.00
2018-08-04T01:56:48.787Z,0.00
2018-08-04T01:57:48.764Z,0.00
2018-08-04T01:58:48.749Z,0.00
2018-08-04T01:59:48.722Z,0.00
2018-08-04T02:00:48.703Z,0.00
2018-08-04T02:01:48.672Z,0.00
2018-08-04T02:02:48.649Z,0.00
2018-08-04T02:03:48.633Z,0.00
2018-08-04T02:04:48.603Z,0.00
2018-08-04T02:05:48.591Z,0.00
2018-08-04T02:06:48.562Z,0.00
2018-08-04T02:07:48.535Z,0.00
2018-08-04T02:08:48.518Z,0.00
2018-08-04T02:09:48.493Z,0.00
2018-08-04T02:10:48.476Z,0.00
2018-08-04T02:11:48.442Z,0.00
2018-08-04T02:12:48.420Z,0.00
2018-08-04T02:13:48.397Z,0.00
2018-08-04T02:14:48.384Z,0.00
2018-08-04T02:15:48.359Z,0.00
2018-08-04T02:16:48.330Z,0.00
2018-08-04T02:17:48.318Z,0.00
2018-08-04T02:18:48.290Z,0.00
2018-08-04T02:19:48.262Z,0.00
2018-08-04T02:20:48.245Z,0.00
2018-08-04T02:21:48.219Z,0.00
2018-08-04T02:22:48.191Z,0.00
2018-08-04T02:23:48.177Z,0.00
2018-08-04T02:24:48.147Z,0.00
2018-08-04T02:25:48.136Z,0.00
2018-08-04T02:26:48.099Z,0.00
2018-08-04T02:27:48.086Z,0.00
2018-08-04T02:28:48.060Z,0.00
2018-08-04T02:29:48.041Z,0.00
2018-08-04T02:30:48.012Z,0.00
2018-08-04T02:31:47.986Z,0.00
2018-08-04T02:32:47.973Z,0.00
2018-08-04T02:33:47.942Z,0.00
2018-08-04T02:34:47.917Z,0.00
2018-08-04T02:35:47.925Z,0.00
2018-08-04T02:36:47.872Z,0.00
2018-08-04T02:37:47.859Z,0.00
2018-08-04T02:38:47.829Z,0.00
2018-08-04T02:39:47.810Z,0.00
2018-08-04T02:40:47.786Z,0.00
2018-08-04T02:41:47.764Z,0.00
2018-08-04T02:42:47.739Z,0.00
2018-08-04T02:43:47.712Z,0.00
2018-08-04T02:44:47.695Z,0.00
2018-08-04T02:45:47.669Z,0.00
2018-08-04T02:46:47.647Z,0.00
2018-08-04T02:47:47.631Z,0.00
2018-08-04T02:48:47.606Z,0.00
2018-08-04T02:49:47.593Z,0.00
2018-08-04T02:50:47.558Z,0.00
2018-08-04T02:51:47.549Z,0.00
2018-08-04T02:52:47.515Z,0.00
2018-08-04T02:53:47.496Z,0.00
2018-08-04T02:54:47.462Z,0.00
2018-08-04T02:55:47.447Z,0.00
2018-08-04T02:56:47.423Z,0.00
2018-08-04T02:57:47.398Z,0.00
2018-08-04T02:58:47.375Z,0.00
2018-08-04T02:59:47.357Z,0.00
2018-08-04T03:00:47.325Z,0.00
2018-08-04T03:01:47.306Z,0.00
2018-08-04T03:02:47.306Z,0.00
2018-08-04T03:03:47.256Z,0.00
2018-08-04T03:04:47.257Z,0.00
2018-08-04T03:05:47.216Z,0.00
2018-08-04T03:06:47.196Z,0.00
2018-08-04T03:07:47.167Z,0.00
2018-08-04T03:08:47.144Z,0.00
2018-08-04T03:09:47.127Z,0.00
2018-08-04T03:10:47.098Z,0.00
2018-08-04T03:11:47.080Z,0.00
2018-08-04T03:12:47.061Z,0.00
2018-08-04T03:13:47.028Z,0.00
2018-08-04T03:14:47.012Z,0.00
2018-08-04T03:15:46.980Z,0.00
2018-08-04T03:16:46.967Z,0.00
2018-08-04T03:17:46.938Z,0.00
2018-08-04T03:18:46.918Z,0.00
2018-08-04T03:19:46.900Z,0.00
2018-08-04T03:20:46.867Z,0.00
2018-08-04T03:21:46.849Z,0.00
2018-08-04T03:22:46.823Z,0.00
2018-08-04T03:23:46.805Z,0.00
2018-08-04T03:24:46.777Z,0.00
2018-08-04T03:25:46.757Z,0.00
2018-08-04T03:26:46.738Z,0.00
2018-08-04T03:27:46.709Z,0.00
2018-08-04T03:28:46.691Z,0.00
2018-08-04T03:29:46.663Z,0.00
2018-08-04T03:30:46.638Z,0.00
2018-08-04T03:31:46.623Z,0.00
2018-08-04T03:32:46.597Z,0.00
2018-08-04T03:33:46.577Z,0.00
2018-08-04T03:34:46.548Z,0.00
2018-08-04T03:35:46.520Z,0.00
2018-08-04T03:36:46.507Z,0.00
2018-08-04T03:37:46.480Z,0.00
2018-08-04T03:38:46.451Z,0.00
2018-08-04T03:39:46.437Z,0.00
2018-08-04T03:40:46.408Z,0.00
2018-08-04T03:41:46.395Z,0.00
2018-08-04T03:42:46.368Z,0.00
2018-08-04T03:43:46.340Z,0.00
2018-08-04T03:44:46.326Z,0.00
2018-08-04T03:45:46.293Z,0.00
2018-08-04T03:46:46.270Z,0.00
2018-08-04T03:47:46.251Z,0.00
2018-08-04T03:48:46.225Z,0.00
2018-08-04T03:49:46.206Z,0.00
2018-08-04T03:50:46.182Z,0.00
2018-08-04T03:51:46.156Z,0.00
2018-08-04T03:52:46.130Z,0.00
2018-08-04T03:53:46.116Z,0.00
2018-08-04T03:54:46.095Z,0.00
2018-08-04T03:55:46.060Z,0.00
2018-08-04T03:56:46.045Z,0.00
2018-08-04T03:57:46.023Z,0.00
2018-08-04T03:58:45.993Z,0.00
2018-08-04T03:59:46.073Z,5.63
2018-08-04T04:00:45.951Z,5.63
2018-08-04T04:01:45.924Z,5.63
2018-08-04T04:02:45.905Z,5.63
2018-08-04T04:03:45.881Z,5.63
2018-08-04T04:04:45.896Z,5.63
2018-08-04T04:05:45.840Z,5.63
2018-08-04T04:06:45.867Z,5.63
2018-08-04T04:07:45.783Z,5.63
2018-08-04T04:08:45.765Z,5.63
2018-08-04T04:09:45.745Z,5.63
2018-08-04T04:10:45.719Z,5.63
2018-08-04T04:11:45.693Z,5.63
2018-08-04T04:12:45.667Z,5.63
2018-08-04T04:13:45.653Z,5.63
2018-08-04T04:14:45.624Z,11.25
2018-08-04T04:15:45.604Z,11.25
2018-08-04T04:16:45.584Z,11.25
2018-08-04T04:17:45.554Z,11.25
2018-08-04T04:18:45.536Z,11.25
2018-08-04T04:19:45.505Z,11.25
2018-08-04T04:20:45.485Z,11.25
2018-08-04T04:21:45.465Z,11.25
2018-08-04T04:22:45.439Z,11.25
2018-08-04T04:23:45.422Z,11.25
2018-08-04T04:24:45.438Z,11.25
2018-08-04T04:25:45.372Z,11.25
2018-08-04T04:26:45.345Z,11.25
2018-08-04T04:27:45.342Z,11.25
2018-08-04T04:28:45.300Z,11.25
2018-08-04T04:29:45.280Z,11.25
2018-08-04T04:30:45.264Z,16.88
2018-08-04T04:31:45.239Z,16.88
2018-08-04T04:32:45.211Z,16.88
2018-08-04T04:33:45.189Z,16.88
2018-08-04T04:34:45.158Z,16.88
2018-08-04T04:35:45.145Z,22.50
2018-08-04T04:36:45.168Z,22.50
2018-08-04T04:37:45.098Z,22.50
2018-08-04T04:38:45.076Z,22.50
2018-08-04T04:39:45.045Z,22.50
2018-08-04T04:40:45.029Z,22.50
2018-08-04T04:41:44.999Z,22.50
2018-08-04T04:42:44.980Z,22.50
2018-08-04T04:43:44.954Z,22.50
2018-08-04T04:44:44.926Z,22.50
2018-08-04T04:45:44.915Z,28.13
2018-08-04T04:46:44.884Z,28.13
2018-08-04T04:47:44.865Z,28.13
2018-08-04T04:48:44.844Z,28.13
2018-08-04T04:49:44.813Z,28.13
2018-08-04T04:50:44.792Z,28.13
2018-08-04T04:51:44.877Z,28.13
2018-08-04T04:52:44.747Z,28.13
2018-08-04T04:53:44.725Z,28.13
2018-08-04T04:54:44.704Z,33.75
2018-08-04T04:55:44.675Z,33.75
2018-08-04T04:56:44.653Z,33.75
2018-08-04T04:57:44.639Z,33.75
2018-08-04T04:58:44.609Z,33.75
2018-08-04T04:59:44.747Z,33.75
2018-08-04T05:00:44.568Z,33.75
2018-08-04T05:01:44.541Z,33.75
2018-08-04T05:02:44.519Z,33.75
2018-08-04T05:03:44.499Z,33.75
2018-08-04T05:04:44.467Z,33.75
2018-08-04T05:05:44.462Z,33.75
2018-08-04T05:06:44.427Z,33.75
2018-08-04T05:07:44.399Z,33.75
2018-08-04T05:08:44.409Z,33.75
2018-08-04T05:09:44.362Z,39.38
2018-08-04T05:10:44.332Z,39.38
2018-08-04T05:11:44.312Z,39.38
2018-08-04T05:12:44.286Z,45.00
2018-08-04T05:13:44.269Z,45.00
2018-08-04T05:14:44.241Z,50.63
2018-08-04T05:15:44.217Z,50.63
2018-08-04T05:16:44.191Z,50.63
2018-08-04T05:17:44.178Z,56.25
2018-08-04T05:18:44.147Z,56.25
2018-08-04T05:19:44.145Z,56.25
2018-08-04T05:20:44.107Z,56.25
2018-08-04T05:21:44.076Z,56.25
2018-08-04T05:22:44.095Z,56.25
2018-08-04T05:23:44.029Z,56.25
2018-08-04T05:24:44.035Z,56.25
2018-08-04T05:25:43.989Z,56.25
2018-08-04T05:26:44.067Z,56.25
2018-08-04T05:27:43.951Z,56.25
2018-08-04T05:28:43.973Z,61.88
2018-08-04T05:29:43.893Z,61.88
2018-08-04T05:30:43.895Z,61.88
2018-08-04T05:31:43.845Z,61.88
2018-08-04T05:32:43.831Z,61.88
2018-08-04T05:33:43.799Z,67.50
2018-08-04T05:34:43.779Z,67.50
2018-08-04T05:35:43.762Z,67.50
2018-08-04T05:36:43.731Z,67.50
2018-08-04T05:37:43.719Z,67.50
2018-08-04T05:38:43.686Z,67.50
2018-08-04T05:39:43.673Z,67.50
2018-08-04T05:40:43.638Z,67.50
2018-08-04T05:41:43.624Z,67.50
2018-08-04T05:42:43.604Z,67.50
2018-08-04T05:43:43.669Z,67.50
2018-08-04T05:44:43.589Z,73.13
2018-08-04T05:45:43.528Z,78.75
2018-08-04T05:46:43.502Z,78.75
2018-08-04T05:47:43.474Z,78.75
2018-08-04T05:48:43.460Z,78.75
2018-08-04T05:49:43.437Z,78.75
2018-08-04T05:50:43.411Z,78.75
2018-08-04T05:51:43.407Z,78.75
2018-08-04T05:52:43.370Z,78.75
2018-08-04T05:53:43.351Z,78.75
2018-08-04T05:54:43.321Z,78.75
2018-08-04T05:55:43.294Z,78.75
2018-08-04T05:56:43.272Z,84.38
2018-08-04T05:57:43.255Z,84.38
2018-08-04T05:58:43.276Z,84.38
2018-08-04T05:59:43.206Z,84.38
2018-08-04T06:00:43.190Z,90.00
2018-08-04T06:01:43.209Z,95.63
2018-08-04T06:02:43.137Z,90.00
2018-08-04T06:03:43.117Z,90.00
2018-08-04T06:04:43.091Z,95.63
2018-08-04T06:05:43.067Z,95.63
2018-08-04T06:06:43.039Z,95.63
2018-08-04T06:07:43.025Z,101.25
2018-08-04T06:08:43.013Z,95.63
2018-08-04T06:09:42.975Z,95.63
2018-08-04T06:10:42.950Z,95.63
2018-08-04T06:11:42.931Z,95.63
2018-08-04T06:12:42.905Z,95.63
2018-08-04T06:13:42.889Z,95.63
2018-08-04T06:14:42.860Z,101.25
2018-08-04T06:15:42.837Z,106.88
2018-08-04T06:16:42.850Z,101.25
2018-08-04T06:17:42.791Z,106.88
2018-08-04T06:18:42.767Z,106.88
2018-08-04T06:19:42.747Z,112.50
2018-08-04T06:20:42.727Z,112.50
2018-08-04T06:21:42.704Z,112.50
2018-08-04T06:22:42.677Z,112.50
2018-08-04T06:23:42.661Z,112.50
2018-08-04T06:24:42.630Z,112.50
2018-08-04T06:25:42.623Z,106.88
2018-08-04T06:26:42.582Z,106.88
2018-08-04T06:27:42.568Z,106.88
2018-08-04T06:28:42.539Z,106.88
2018-08-04T06:29:42.522Z,106.88
2018-08-04T06:30:42.497Z,106.88
2018-08-04T06:31:42.501Z,106.88
2018-08-04T06:32:42.451Z,106.88
2018-08-04T06:33:42.428Z,106.88
2018-08-04T06:34:42.401Z,95.63
2018-08-04T06:35:42.385Z,95.63
2018-08-04T06:36:42.359Z,95.63
2018-08-04T06:37:42.344Z,90.00
2018-08-04T06:38:42.315Z,95.63
2018-08-04T06:39:42.291Z,95.63
2018-08-04T06:40:42.266Z,90.00
2018-08-04T06:41:42.275Z,90.00
2018-08-04T06:42:42.219Z,90.00
2018-08-04T06:43:42.200Z,90.00
2018-08-04T06:44:42.179Z,90.00
2018-08-04T06:45:42.148Z,95.63
2018-08-04T06:46:42.126Z,95.63
2018-08-04T06:47:42.114Z,95.63
2018-08-04T06:48:42.088Z,95.63
2018-08-04T06:49:42.066Z,101.25
2018-08-04T06:50:42.036Z,101.25
2018-08-04T06:51:42.012Z,101.25
2018-08-04T06:52:41.994Z,112.50
2018-08-04T06:53:41.976Z,106.88
2018-08-04T06:54:41.949Z,106.88
2018-08-04T06:55:41.925Z,106.88
2018-08-04T06:56:41.903Z,106.88
2018-08-04T06:57:41.888Z,106.88
2018-08-04T06:58:41.851Z,106.88
2018-08-04T06:59:41.837Z,112.50
2018-08-04T07:00:41.808Z,112.50
2018-08-04T07:01:41.793Z,118.13
2018-08-04T07:02:41.768Z,118.13
2018-08-04T07:03:41.736Z,118.13
2018-08-04T07:04:41.721Z,112.50
2018-08-04T07:05:41.691Z,112.50
2018-08-04T07:06:41.677Z,112.50
2018-08-04T07:07:41.657Z,112.50
2018-08-04T07:08:41.634Z,118.13
2018-08-04T07:09:42.559Z,118.13
2018-08-04T07:10:41.580Z,118.13
2018-08-04T07:11:41.563Z,118.13
2018-08-04T07:12:41.538Z,118.13
2018-08-04T07:13:41.521Z,123.75
2018-08-04T07:14:41.495Z,118.13
2018-08-04T07:15:41.465Z,118.13
2018-08-04T07:16:41.452Z,112.50
2018-08-04T07:17:41.420Z,112.50
2018-08-04T07:18:41.397Z,106.88
2018-08-04T07:19:41.382Z,106.88
2018-08-04T07:20:41.352Z,101.25
2018-08-04T07:21:41.336Z,101.25
2018-08-04T07:22:41.313Z,95.63
2018-08-04T07:23:41.282Z,95.63
2018-08-04T07:24:41.262Z,90.00
2018-08-04T07:25:41.236Z,84.38
2018-08-04T07:26:41.217Z,84.38
2018-08-04T07:27:41.193Z,78.75
2018-08-04T07:28:41.175Z,73.13
2018-08-04T07:29:41.146Z,73.13
2018-08-04T07:30:41.126Z,73.13
2018-08-04T07:31:41.107Z,67.50
2018-08-04T07:32:41.075Z,73.13
2018-08-04T07:33:41.060Z,73.13
2018-08-04T07:34:41.037Z,78.75
2018-08-04T07:35:41.011Z,78.75
2018-08-04T07:36:40.988Z,84.38
2018-08-04T07:37:40.965Z,90.00
2018-08-04T07:38:40.958Z,90.00
2018-08-04T07:39:40.923Z,95.63
2018-08-04T07:40:40.896Z,101.25
2018-08-04T07:41:40.876Z,101.25
2018-08-04T07:42:40.856Z,106.88
2018-08-04T07:43:40.832Z,101.25
2018-08-04T07:44:40.809Z,95.63
2018-08-04T07:45:40.777Z,95.63
2018-08-04T07:46:40.761Z,95.63
2018-08-04T07:47:40.769Z,95.63
2018-08-04T07:48:40.708Z,90.00
2018-08-04T07:49:40.691Z,90.00
2018-08-04T07:50:40.668Z,84.38
2018-08-04T07:51:40.650Z,78.75
2018-08-04T07:52:40.615Z,73.13
2018-08-04T07:53:40.605Z,73.13
2018-08-04T07:54:40.579Z,67.50
2018-08-04T07:55:40.546Z,61.88
2018-08-04T07:56:40.530Z,56.25
2018-08-04T07:57:40.506Z,56.25
2018-08-04T07:58:40.478Z,50.63
2018-08-04T07:59:40.463Z,50.63
2018-08-04T08:00:40.438Z,50.63
2018-08-04T08:01:40.411Z,50.63
2018-08-04T08:02:40.390Z,50.63
2018-08-04T08:03:40.363Z,50.63
2018-08-04T08:04:40.343Z,50.63
2018-08-04T08:05:40.323Z,50.63
2018-08-04T08:06:40.294Z,50.63
2018-08-04T08:07:40.277Z,50.63
2018-08-04T08:08:40.257Z,50.63
2018-08-04T08:09:40.227Z,50.63
2018-08-04T08:10:40.294Z,50.63
2018-08-04T08:11:40.185Z,50.63
2018-08-04T08:12:40.153Z,50.63
2018-08-04T08:13:40.139Z,50.63
2018-08-04T08:14:40.123Z,50.63
2018-08-04T08:15:40.082Z,50.63
2018-08-04T08:16:40.071Z,50.63
2018-08-04T08:17:40.037Z,50.63
2018-08-04T08:18:40.023Z,50.63
2018-08-04T08:19:39.994Z,50.63
2018-08-04T08:20:39.979Z,50.63
2018-08-04T08:21:39.946Z,50.63
2018-08-04T08:22:39.923Z,50.63
2018-08-04T08:23:39.908Z,50.63
2018-08-04T08:24:39.879Z,50.63
2018-08-04T08:25:39.862Z,50.63
2018-08-04T08:26:39.834Z,50.63
2018-08-04T08:27:39.812Z,50.63
2018-08-04T08:28:39.799Z,50.63
2018-08-04T08:29:39.766Z,50.63
2018-08-04T08:30:39.743Z,50.63
2018-08-04T08:31:39.762Z,50.63
2018-08-04T08:32:39.724Z,50.63
2018-08-04T08:34:49.909Z,50.63
2018-08-04T08:35:39.626Z,50.63
2018-08-04T08:36:39.607Z,50.63
2018-08-04T08:37:39.577Z,50.63
2018-08-04T08:38:39.559Z,50.63
2018-08-04T08:39:39.541Z,50.63
2018-08-04T08:40:39.508Z,50.63
2018-08-04T08:41:39.489Z,50.63
2018-08-04T08:42:39.463Z,50.63
2018-08-04T08:43:39.440Z,50.63
2018-08-04T08:44:39.422Z,50.63
2018-08-04T08:45:39.395Z,50.63
2018-08-04T08:46:39.366Z,50.63
2018-08-04T08:47:39.353Z,50.63
2018-08-04T08:48:39.327Z,50.63
2018-08-04T08:49:39.301Z,50.63
2018-08-04T08:50:39.283Z,50.63
2018-08-04T08:51:39.258Z,50.63
2018-08-04T08:52:39.226Z,50.63
2018-08-04T08:53:39.259Z,50.63
2018-08-04T08:54:39.189Z,50.63
2018-08-04T08:55:39.162Z,50.63
2018-08-04T08:56:39.144Z,50.63
2018-08-04T08:57:39.123Z,50.63
2018-08-04T08:58:39.089Z,50.63
2018-08-04T08:59:39.073Z,50.63
2018-08-04T09:00:39.051Z,50.63
2018-08-04T09:01:39.021Z,50.63
2018-08-04T09:02:39.006Z,50.63
2018-08-04T09:03:38.981Z,50.63
2018-08-04T09:04:38.956Z,50.63
2018-08-04T09:05:38.936Z,50.63
2018-08-04T09:06:38.914Z,50.63
2018-08-04T09:07:38.884Z,50.63
2018-08-04T09:08:38.923Z,50.63
2018-08-04T09:09:38.843Z,56.25
2018-08-04T09:10:38.823Z,56.25
2018-08-04T09:11:38.800Z,56.25
2018-08-04T09:12:38.768Z,56.25
2018-08-04T09:13:38.747Z,56.25
2018-08-04T09:14:38.732Z,56.25
2018-08-04T09:15:38.711Z,56.25
2018-08-04T09:16:38.686Z,56.25
2018-08-04T09:17:38.663Z,56.25
2018-08-04T09:18:38.633Z,56.25
2018-08-04T09:19:38.620Z,56.25
2018-08-04T09:20:38.588Z,56.25
2018-08-04T09:21:38.650Z,56.25
2018-08-04T09:22:38.544Z,56.25
2018-08-04T09:23:38.524Z,56.25
2018-08-04T09:24:38.499Z,56.25
2018-08-04T09:25:38.478Z,56.25
2018-08-04T09:26:38.452Z,56.25
2018-08-04T09:27:38.432Z,56.25
2018-08-04T09:28:38.407Z,56.25
2018-08-04T09:29:38.384Z,56.25
2018-08-04T09:30:38.378Z,56.25
2018-08-04T09:31:38.335Z,56.25
2018-08-04T09:32:38.319Z,56.25
2018-08-04T09:33:38.298Z,56.25
2018-08-04T09:34:38.274Z,56.25
2018-08-04T09:35:38.244Z,56.25
2018-08-04T09:36:38.230Z,56.25
2018-08-04T09:37:38.197Z,56.25
2018-08-04T09:38:38.183Z,56.25
2018-08-04T09:39:38.157Z,56.25
2018-08-04T09:40:38.138Z,56.25
2018-08-04T09:41:38.120Z,50.63
2018-08-04T09:42:38.085Z,50.63
2018-08-04T09:43:38.069Z,56.25
2018-08-04T09:44:38.044Z,56.25
2018-08-04T09:45:38.044Z,56.25
2018-08-04T09:46:37.993Z,56.25
2018-08-04T09:47:37.970Z,56.25
2018-08-04T09:48:37.955Z,56.25
2018-08-04T09:49:37.926Z,56.25
2018-08-04T09:50:37.906Z,56.25
2018-08-04T09:51:37.881Z,56.25
2018-08-04T09:52:37.896Z,56.25
2018-08-04T09:53:37.844Z,56.25
2018-08-04T09:54:37.810Z,56.25
2018-08-04T09:55:37.796Z,56.25
2018-08-04T09:56:37.772Z,56.25
2018-08-04T09:57:37.765Z,56.25
2018-08-04T09:58:37.729Z,56.25
2018-08-04T09:59:37.723Z,56.25
2018-08-04T10:00:37.678Z,56.25
2018-08-04T10:01:37.656Z,56.25
2018-08-04T10:02:37.631Z,56.25
2018-08-04T10:03:37.608Z,56.25
2018-08-04T10:04:37.594Z,56.25
2018-08-04T10:05:37.565Z,56.25
2018-08-04T10:06:37.550Z,56.25
2018-08-04T10:07:37.569Z,56.25
2018-08-04T10:08:37.498Z,56.25
2018-08-04T10:09:37.480Z,56.25
2018-08-04T10:10:37.454Z,61.88
2018-08-04T10:11:37.429Z,61.88
2018-08-04T10:12:37.418Z,61.88
2018-08-04T10:13:37.385Z,61.88
2018-08-04T10:14:37.371Z,61.88
2018-08-04T10:15:37.338Z,61.88
2018-08-04T10:16:37.324Z,61.88
2018-08-04T10:17:37.301Z,61.88
2018-08-04T10:18:37.275Z,61.88
2018-08-04T10:19:37.249Z,61.88
2018-08-04T10:20:37.230Z,61.88
2018-08-04T10:21:37.209Z,61.88
2018-08-04T10:22:37.189Z,61.88
2018-08-04T10:23:37.157Z,61.88
2018-08-04T10:24:37.138Z,61.88
2018-08-04T10:25:37.120Z,61.88
2018-08-04T10:26:37.097Z,61.88
2018-08-04T10:27:37.068Z,67.50
2018-08-04T10:28:37.058Z,67.50
2018-08-04T10:29:37.032Z,67.50
2018-08-04T10:30:37.001Z,67.50
2018-08-04T10:31:36.983Z,67.50
2018-08-04T10:32:37.091Z,67.50
2018-08-04T10:33:36.945Z,67.50
2018-08-04T10:34:36.912Z,67.50
2018-08-04T10:35:36.893Z,67.50
2018-08-04T10:36:36.884Z,67.50
2018-08-04T10:37:36.861Z,67.50
2018-08-04T10:38:37.169Z,67.50
2018-08-04T10:39:36.811Z,67.50
2018-08-04T10:40:36.784Z,61.88
2018-08-04T10:41:36.762Z,61.88
2018-08-04T10:42:36.739Z,61.88
2018-08-04T10:43:36.715Z,61.88
2018-08-04T10:44:36.696Z,61.88
2018-08-04T10:45:36.673Z,61.88
2018-08-04T10:46:36.649Z,61.88
2018-08-04T10:47:36.627Z,61.88
2018-08-04T10:48:36.606Z,61.88
2018-08-04T10:49:36.650Z,67.50
2018-08-04T10:50:36.561Z,67.50
2018-08-04T10:51:36.542Z,61.88
2018-08-04T10:52:36.519Z,61.88
2018-08-04T10:53:36.494Z,61.88
2018-08-04T10:54:36.472Z,67.50
2018-08-04T10:55:36.452Z,67.50
2018-08-04T10:56:36.431Z,67.50
2018-08-04T10:57:36.408Z,67.50
2018-08-04T10:58:36.381Z,67.50
2018-08-04T10:59:36.364Z,67.50
2018-08-04T11:00:36.338Z,67.50
2018-08-04T11:01:36.316Z,67.50
2018-08-04T11:02:36.297Z,67.50
2018-08-04T11:03:36.272Z,67.50
2018-08-04T11:04:36.260Z,73.13
2018-08-04T11:05:36.230Z,73.13
2018-08-04T11:06:36.206Z,73.13
2018-08-04T11:07:36.185Z,73.13
2018-08-04T11:08:36.388Z,73.13
2018-08-04T11:09:36.142Z,73.13
2018-08-04T11:10:36.125Z,73.13
2018-08-04T11:11:36.103Z,73.13
2018-08-04T11:12:36.142Z,73.13
2018-08-04T11:13:36.055Z,73.13
2018-08-04T11:14:36.044Z,73.13
2018-08-04T11:15:36.014Z,73.13
2018-08-04T11:16:35.994Z,73.13
2018-08-04T11:17:35.963Z,73.13
2018-08-04T11:18:35.949Z,73.13
2018-08-04T11:19:35.919Z,73.13
2018-08-04T11:20:35.906Z,73.13
2018-08-04T11:21:35.888Z,73.13
2018-08-04T11:22:35.859Z,73.13
2018-08-04T11:23:35.841Z,73.13
2018-08-04T11:24:35.816Z,73.13
2018-08-04T11:25:35.795Z,73.13
2018-08-04T11:26:35.767Z,73.13
2018-08-04T11:27:35.790Z,73.13
2018-08-04T11:28:35.729Z,73.13
2018-08-04T11:29:35.702Z,73.13
2018-08-04T11:30:35.686Z,73.13
2018-08-04T11:31:35.664Z,73.13
2018-08-04T11:32:35.656Z,73.13
2018-08-04T11:33:35.617Z,73.13
2018-08-04T11:34:35.609Z,78.75
2018-08-04T11:35:35.579Z,78.75
2018-08-04T11:36:35.550Z,78.75
2018-08-04T11:37:35.531Z,78.75
2018-08-04T11:38:35.510Z,78.75
2018-08-04T11:39:35.485Z,84.38
2018-08-04T11:40:35.471Z,84.38
2018-08-04T11:41:35.451Z,84.38
2018-08-04T11:42:35.419Z,84.38
2018-08-04T11:43:35.408Z,90.00
2018-08-04T11:44:35.384Z,90.00
2018-08-04T11:45:35.385Z,84.38
2018-08-04T11:46:35.335Z,90.00
2018-08-04T11:47:35.313Z,90.00
2018-08-04T11:48:35.295Z,90.00
2018-08-04T11:49:35.267Z,90.00
2018-08-04T11:50:35.266Z,90.00
2018-08-04T11:51:35.272Z,90.00
2018-08-04T11:52:35.268Z,90.00
2018-08-04T11:53:35.189Z,90.00
2018-08-04T11:54:35.202Z,90.00
2018-08-04T11:55:35.145Z,90.00
2018-08-04T11:56:35.124Z,95.63
2018-08-04T11:57:35.122Z,95.63
2018-08-04T11:58:35.075Z,90.00
2018-08-04T11:59:35.053Z,95.63
2018-08-04T12:00:35.033Z,95.63
2018-08-04T12:01:35.008Z,95.63
2018-08-04T12:02:34.993Z,95.63
2018-08-04T12:03:34.969Z,95.63
2018-08-04T12:04:34.955Z,90.00
2018-08-04T12:05:34.940Z,90.00
2018-08-04T12:06:34.905Z,95.63
2018-08-04T12:07:34.893Z,95.63
2018-08-04T12:08:34.856Z,95.63
2018-08-04T12:09:34.836Z,90.00
2018-08-04T12:10:34.822Z,95.63
2018-08-04T12:11:34.796Z,101.25
2018-08-04T12:12:34.780Z,101.25
2018-08-04T12:13:34.761Z,106.88
2018-08-04T12:14:34.730Z,112.50
2018-08-04T12:15:34.717Z,106.88
2018-08-04T12:16:34.692Z,106.88
2018-08-04T12:17:34.670Z,106.88
2018-08-04T12:18:34.654Z,106.88
2018-08-04T12:19:34.644Z,95.63
2018-08-04T12:20:34.609Z,95.63
2018-08-04T12:21:34.587Z,95.63
2018-08-04T12:22:34.562Z,95.63
2018-08-04T12:23:34.545Z,84.38
2018-08-04T12:24:34.520Z,84.38
2018-08-04T12:25:34.565Z,90.00
2018-08-04T12:26:34.472Z,84.38
2018-08-04T12:27:35.081Z,78.75
2018-08-04T12:28:35.409Z,90.00
2018-08-04T12:29:34.431Z,90.00
2018-08-04T12:30:34.715Z,95.63
2018-08-04T12:31:34.441Z,95.63
2018-08-04T12:32:34.355Z,95.63
2018-08-04T12:33:34.338Z,95.63
2018-08-04T12:34:34.305Z,95.63
2018-08-04T12:35:34.305Z,95.63
2018-08-04T12:36:34.270Z,101.25
2018-08-04T12:37:34.320Z,101.25
2018-08-04T12:38:34.224Z,101.25
2018-08-04T12:39:34.210Z,101.25
2018-08-04T12:40:34.177Z,106.88
2018-08-04T12:41:34.165Z,112.50
2018-08-04T12:42:34.145Z,112.50
2018-08-04T12:43:34.115Z,118.13
2018-08-04T12:44:34.107Z,118.13
2018-08-04T12:45:34.159Z,112.50
2018-08-04T12:46:34.062Z,106.88
2018-08-04T12:47:34.038Z,101.25
2018-08-04T12:48:34.045Z,101.25
2018-08-04T12:49:33.995Z,101.25
2018-08-04T12:50:33.963Z,101.25
2018-08-04T12:51:33.949Z,106.88
2018-08-04T12:52:33.931Z,106.88
2018-08-04T12:53:33.981Z,106.88
2018-08-04T12:54:33.967Z,112.50
2018-08-04T12:55:33.865Z,112.50
2018-08-04T12:56:33.842Z,118.13
2018-08-04T12:57:33.823Z,106.88
2018-08-04T12:58:33.828Z,106.88
2018-08-04T12:59:33.818Z,106.88